Time;durP1;ratioP1;P1;durP2;ratioP2;P2;SDS_P1;SDS_P2;PMS_P1;PMS_P2;Temp;Humidity;BMP_temperature;BMP_pressure;BME280_temperature;BME280_humidity;BME280_pressure;Samples;Min_cycle;Max_cycle;Signal;HPM_P1;HPM_P2
2023/04/17 00:01:08;;;;;;;35.22;6.88;;;;;;;;;;5050844;28;20551;-38
2023/04/17 00:03:35;;;;;;;33.85;7.25;;;;;;;;;;5045369;28;20036;-38
2023/04/17 00:06:02;;;;;;;38.33;7.43;;;;;;;;;;5063063;28;20036;-39
2023/04/17 00:08:30;;;;;;;34.00;7.10;;;;;;;;;;5053778;28;20040;-39
2023/04/17 00:10:57;;;;;;;42.80;7.82;;;;;;;;;;5066699;28;20040;-37
2023/04/17 00:13:24;;;;;;;32.72;8.18;;;;;;;;;;5071171;28;20032;-39
2023/04/17 00:15:51;;;;;;;34.92;8.55;;;;;;;;;;5063457;28;20025;-39
2023/04/17 00:18:17;;;;;;;41.65;8.05;;;;;;;;;;5068030;28;20028;-38
2023/04/17 00:20:44;;;;;;;31.60;7.78;;;;;;;;;;5069107;28;20042;-37
2023/04/17 00:23:11;;;;;;;32.20;7.13;;;;;;;;;;5072448;28;20028;-37
2023/04/17 00:25:38;;;;;;;36.88;8.25;;;;;;;;;;5071295;28;20039;-38
2023/04/17 00:28:05;;;;;;;34.63;7.78;;;;;;;;;;5071484;28;20032;-38
2023/04/17 00:30:32;;;;;;;31.00;8.13;;;;;;;;;;5067056;28;20034;-37
2023/04/17 00:32:59;;;;;;;24.00;7.70;;;;;;;;;;5053952;28;20578;-38
2023/04/17 00:35:26;;;;;;;27.95;8.70;;;;;;;;;;5068176;28;20029;-37
2023/04/17 00:37:53;;;;;;;33.53;9.48;;;;;;;;;;5052683;28;20048;-39
2023/04/17 00:40:20;;;;;;;34.70;9.70;;;;;;;;;;5063425;28;20491;-39
2023/04/17 00:42:52;;;;;;;33.50;10.68;;;;;;;;;;5052905;28;20440;-38
2023/04/17 00:45:22;;;;;;;38.70;10.02;;;;;;;;;;5066959;28;20375;-38
2023/04/17 00:47:50;;;;;;;35.65;11.13;;;;;;;;;;5051337;28;20028;-37
2023/04/17 00:50:17;;;;;;;30.35;10.98;;;;;;;;;;5064150;28;20062;-38
2023/04/17 00:52:44;;;;;;;34.42;10.88;;;;;;;;;;5050939;28;20502;-39
2023/04/17 00:55:13;;;;;;;39.45;10.43;;;;;;;;;;5064215;28;20135;-39
2023/04/17 00:57:40;;;;;;;33.03;10.23;;;;;;;;;;5046024;28;20027;-37
2023/04/17 01:00:09;;;;;;;28.20;9.82;;;;;;;;;;5062290;28;20123;-37
2023/04/17 01:02:36;;;;;;;35.10;9.88;;;;;;;;;;5051052;28;20036;-38
2023/04/17 01:05:04;;;;;;;36.72;9.85;;;;;;;;;;5063218;28;20060;-37
2023/04/17 01:07:31;;;;;;;34.45;9.43;;;;;;;;;;5042417;28;20483;-38
2023/04/17 01:09:59;;;;;;;28.25;9.38;;;;;;;;;;5058131;28;20115;-39
2023/04/17 01:12:26;;;;;;;28.65;9.43;;;;;;;;;;5046089;28;20039;-38
2023/04/17 01:14:57;;;;;;;31.85;9.10;;;;;;;;;;5055613;28;20699;-38
2023/04/17 01:17:27;;;;;;;26.10;8.45;;;;;;;;;;5048650;28;20037;-38
2023/04/17 01:19:55;;;;;;;28.88;9.00;;;;;;;;;;5066013;28;20428;-39
2023/04/17 01:22:22;;;;;;;35.33;8.85;;;;;;;;;;5048895;28;20123;-37
2023/04/17 01:24:49;;;;;;;33.72;8.00;;;;;;;;;;5059298;28;20506;-37
2023/04/17 01:27:16;;;;;;;30.63;8.45;;;;;;;;;;5050774;28;20037;-38
2023/04/17 01:29:43;;;;;;;31.25;8.35;;;;;;;;;;5052910;28;20058;-37
2023/04/17 01:32:10;;;;;;;32.22;7.82;;;;;;;;;;5053438;28;20527;-38
2023/04/17 01:34:39;;;;;;;25.95;7.43;;;;;;;;;;5060609;28;20024;-39
2023/04/17 01:37:07;;;;;;;28.27;7.35;;;;;;;;;;5055685;28;20017;-39
2023/04/17 01:39:34;;;;;;;21.65;6.65;;;;;;;;;;5052033;28;20101;-38
2023/04/17 01:42:01;;;;;;;27.27;7.10;;;;;;;;;;5067161;28;20017;-40
2023/04/17 01:44:28;;;;;;;23.60;7.15;;;;;;;;;;5061312;28;20065;-37
2023/04/17 01:46:55;;;;;;;25.70;6.57;;;;;;;;;;5069113;28;20029;-38
2023/04/17 01:49:23;;;;;;;23.10;6.85;;;;;;;;;;5061963;28;20044;-39
2023/04/17 01:51:50;;;;;;;23.45;6.35;;;;;;;;;;5062698;28;20056;-39
2023/04/17 01:54:17;;;;;;;20.42;6.70;;;;;;;;;;5059853;28;20052;-38
2023/04/17 01:56:44;;;;;;;23.92;6.28;;;;;;;;;;5038095;28;20041;-38
2023/04/17 01:59:11;;;;;;;24.35;5.90;;;;;;;;;;5043878;28;20499;-38
2023/04/17 02:01:38;;;;;;;21.88;6.20;;;;;;;;;;5040857;28;20084;-39
2023/04/17 02:04:05;;;;;;;21.50;6.40;;;;;;;;;;5042101;28;20063;-38
2023/04/17 02:06:32;;;;;;;25.25;6.63;;;;;;;;;;5040318;28;20048;-37
2023/04/17 02:08:59;;;;;;;20.30;6.20;;;;;;;;;;5040580;28;20062;-39
2023/04/17 02:11:26;;;;;;;23.40;5.82;;;;;;;;;;5040667;28;20028;-38
2023/04/17 02:13:54;;;;;;;25.15;6.60;;;;;;;;;;5039031;28;20568;-39
2023/04/17 02:16:21;;;;;;;22.88;6.25;;;;;;;;;;5040522;28;20056;-39
2023/04/17 02:18:49;;;;;;;19.73;5.90;;;;;;;;;;5041817;28;20032;-37
2023/04/17 02:21:16;;;;;;;19.58;5.90;;;;;;;;;;5040929;28;20033;-38
2023/04/17 02:23:43;;;;;;;18.90;5.68;;;;;;;;;;5040013;28;20024;-37
2023/04/17 02:26:10;;;;;;;24.33;5.65;;;;;;;;;;5041722;28;20044;-38
2023/04/17 02:28:37;;;;;;;24.75;5.60;;;;;;;;;;5040932;28;20026;-39
2023/04/17 02:31:08;;;;;;;18.42;5.13;;;;;;;;;;5039812;28;20045;-37
2023/04/17 02:33:35;;;;;;;16.42;5.65;;;;;;;;;;5039707;28;20486;-38
2023/04/17 02:36:03;;;;;;;14.32;4.97;;;;;;;;;;5040830;28;20390;-37
2023/04/17 02:38:30;;;;;;;19.38;4.80;;;;;;;;;;5045985;28;20132;-38
2023/04/17 02:40:57;;;;;;;18.73;5.22;;;;;;;;;;5051131;28;20029;-39
2023/04/17 02:43:24;;;;;;;16.27;5.25;;;;;;;;;;5051177;28;20087;-38
2023/04/17 02:45:51;;;;;;;14.65;4.80;;;;;;;;;;5051074;28;20452;-38
2023/04/17 02:48:18;;;;;;;16.92;5.10;;;;;;;;;;5051097;28;20025;-38
2023/04/17 02:50:45;;;;;;;20.10;5.97;;;;;;;;;;5051222;28;20025;-39
2023/04/17 02:53:12;;;;;;;11.77;4.25;;;;;;;;;;5051196;28;20034;-39
2023/04/17 02:55:39;;;;;;;15.10;5.28;;;;;;;;;;5051108;28;20029;-39
2023/04/17 02:58:06;;;;;;;11.95;4.72;;;;;;;;;;5050994;28;20054;-38
2023/04/17 03:00:33;;;;;;;17.10;4.97;;;;;;;;;;5051034;28;20090;-38
2023/04/17 03:03:01;;;;;;;14.20;4.85;;;;;;;;;;5051077;28;20056;-38
2023/04/17 03:05:29;;;;;;;13.80;4.88;;;;;;;;;;5050901;28;20051;-38
2023/04/17 03:07:58;;;;;;;14.85;4.80;;;;;;;;;;5050922;28;20029;-38
2023/04/17 03:10:25;;;;;;;15.60;4.72;;;;;;;;;;5050979;28;20037;-39
2023/04/17 03:12:52;;;;;;;12.98;4.35;;;;;;;;;;5051078;28;20025;-38
2023/04/17 03:15:19;;;;;;;13.82;4.22;;;;;;;;;;5050933;28;20111;-38
2023/04/17 03:17:46;;;;;;;13.38;4.47;;;;;;;;;;5050851;28;20025;-38
2023/04/17 03:20:14;;;;;;;13.40;4.80;;;;;;;;;;5050908;28;20068;-38
2023/04/17 03:22:41;;;;;;;12.68;4.07;;;;;;;;;;5050755;28;20094;-38
2023/04/17 03:25:09;;;;;;;12.90;4.63;;;;;;;;;;5051998;28;20033;-38
2023/04/17 03:27:37;;;;;;;14.07;4.80;;;;;;;;;;5054348;28;20055;-37
2023/04/17 03:30:05;;;;;;;15.27;4.75;;;;;;;;;;5054382;28;20083;-37
2023/04/17 03:32:32;;;;;;;14.18;5.03;;;;;;;;;;5054414;28;20025;-37
2023/04/17 03:34:59;;;;;;;14.38;4.35;;;;;;;;;;5054351;28;20399;-37
2023/04/17 03:37:26;;;;;;;16.65;4.63;;;;;;;;;;5053987;28;20058;-37
2023/04/17 03:39:54;;;;;;;12.02;4.45;;;;;;;;;;5054283;28;20021;-37
2023/04/17 03:42:21;;;;;;;13.35;4.32;;;;;;;;;;5054160;28;20036;-37
2023/04/17 03:44:48;;;;;;;10.23;4.32;;;;;;;;;;5054013;28;20487;-37
2023/04/17 03:47:15;;;;;;;12.60;4.40;;;;;;;;;;5053940;28;20029;-37
2023/04/17 03:49:42;;;;;;;15.95;5.07;;;;;;;;;;5054045;28;20033;-38
2023/04/17 03:52:09;;;;;;;12.68;4.10;;;;;;;;;;5054031;28;20635;-37
2023/04/17 03:54:37;;;;;;;11.73;4.15;;;;;;;;;;5054052;28;20056;-37
2023/04/17 03:57:04;;;;;;;10.63;4.10;;;;;;;;;;5053934;28;20032;-37
2023/04/17 03:59:31;;;;;;;9.77;4.07;;;;;;;;;;5053873;28;20478;-37
2023/04/17 04:01:58;;;;;;;15.27;4.63;;;;;;;;;;5053900;28;20391;-37
2023/04/17 04:04:25;;;;;;;10.13;4.13;;;;;;;;;;5054012;28;20106;-37
2023/04/17 04:06:56;;;;;;;12.88;5.00;;;;;;;;;;5053468;28;20052;-37
2023/04/17 04:09:24;;;;;;;13.10;4.60;;;;;;;;;;5053716;28;20086;-37
2023/04/17 04:11:51;;;;;;;12.70;4.63;;;;;;;;;;5053630;28;20061;-37
2023/04/17 04:14:18;;;;;;;12.75;4.40;;;;;;;;;;5053543;28;20036;-37
2023/04/17 04:16:45;;;;;;;12.27;4.75;;;;;;;;;;5053519;28;20028;-37
2023/04/17 04:19:12;;;;;;;11.27;4.20;;;;;;;;;;5053527;28;20033;-37
2023/04/17 04:21:40;;;;;;;10.85;4.15;;;;;;;;;;5053547;28;20033;-37
2023/04/17 04:24:08;;;;;;;15.90;5.05;;;;;;;;;;5053387;28;20403;-38
2023/04/17 04:26:36;;;;;;;10.38;4.20;;;;;;;;;;5053249;28;20041;-37
2023/04/17 04:29:03;;;;;;;13.07;3.90;;;;;;;;;;5053335;28;20371;-37
2023/04/17 04:31:30;;;;;;;12.68;4.05;;;;;;;;;;5053191;28;20120;-38
2023/04/17 04:34:01;;;;;;;8.38;3.67;;;;;;;;;;5053254;28;20040;-37
2023/04/17 04:36:28;;;;;;;11.38;3.53;;;;;;;;;;5052821;28;20043;-37
2023/04/17 04:38:59;;;;;;;8.63;3.90;;;;;;;;;;5052973;28;20056;-37
2023/04/17 04:41:28;;;;;;;7.85;3.58;;;;;;;;;;5051782;28;20028;-37
2023/04/17 04:43:55;;;;;;;10.65;4.10;;;;;;;;;;5053295;28;20040;-37
2023/04/17 04:46:22;;;;;;;10.77;3.70;;;;;;;;;;5052847;28;20048;-36
2023/04/17 04:48:49;;;;;;;10.20;3.25;;;;;;;;;;5052985;28;20021;-37
2023/04/17 04:51:17;;;;;;;8.88;3.85;;;;;;;;;;5052997;28;20049;-37
2023/04/17 04:53:45;;;;;;;10.05;4.10;;;;;;;;;;5052822;28;20029;-37
2023/04/17 04:56:12;;;;;;;8.82;3.90;;;;;;;;;;5052643;28;20044;-37
2023/04/17 04:58:39;;;;;;;10.88;3.83;;;;;;;;;;5051417;28;20029;-37
2023/04/17 05:01:06;;;;;;;9.23;3.92;;;;;;;;;;5052657;28;20120;-37
2023/04/17 05:03:33;;;;;;;8.05;3.78;;;;;;;;;;5052677;28;20067;-37
2023/04/17 05:06:00;;;;;;;7.53;3.75;;;;;;;;;;5052499;28;20078;-36
2023/04/17 05:08:27;;;;;;;9.95;3.33;;;;;;;;;;5052345;28;20033;-37
2023/04/17 05:10:54;;;;;;;9.98;3.83;;;;;;;;;;5052528;28;20048;-37
2023/04/17 05:13:21;;;;;;;9.43;3.75;;;;;;;;;;5052563;28;20531;-36
2023/04/17 05:15:48;;;;;;;6.68;3.67;;;;;;;;;;5052385;28;20052;-37
2023/04/17 05:18:15;;;;;;;9.05;4.00;;;;;;;;;;5052372;28;20021;-37
2023/04/17 05:20:42;;;;;;;9.07;3.75;;;;;;;;;;5052326;28;20369;-37
2023/04/17 05:23:09;;;;;;;6.75;3.28;;;;;;;;;;5052339;28;20036;-37
2023/04/17 05:25:36;;;;;;;6.72;3.20;;;;;;;;;;5052242;28;20044;-36
2023/04/17 05:28:03;;;;;;;7.55;3.42;;;;;;;;;;5052178;28;20055;-36
2023/04/17 05:30:30;;;;;;;8.15;3.50;;;;;;;;;;5052143;28;20044;-37
2023/04/17 05:32:58;;;;;;;12.00;3.13;;;;;;;;;;5052155;28;20029;-37
2023/04/17 05:35:26;;;;;;;6.65;3.28;;;;;;;;;;5052307;28;20033;-37
2023/04/17 05:37:53;;;;;;;10.35;3.83;;;;;;;;;;5050713;28;20466;-36
2023/04/17 05:40:20;;;;;;;8.25;3.60;;;;;;;;;;5051934;28;20109;-37
2023/04/17 05:42:47;;;;;;;7.68;3.00;;;;;;;;;;5051913;28;20017;-37
2023/04/17 05:45:17;;;;;;;7.88;3.15;;;;;;;;;;5051879;28;20025;-37
2023/04/17 05:47:45;;;;;;;7.88;3.15;;;;;;;;;;5051226;28;20036;-37
2023/04/17 05:50:12;;;;;;;6.03;3.05;;;;;;;;;;5051815;28;20493;-37
2023/04/17 05:52:39;;;;;;;7.35;3.25;;;;;;;;;;5051950;28;20379;-37
2023/04/17 05:55:06;;;;;;;7.50;3.63;;;;;;;;;;5051852;28;20086;-37
2023/04/17 05:57:33;;;;;;;8.43;3.20;;;;;;;;;;5051872;28;20083;-37
2023/04/17 06:00:00;;;;;;;8.90;3.22;;;;;;;;;;5051783;28;20020;-37
2023/04/17 06:02:27;;;;;;;6.72;3.20;;;;;;;;;;5050223;28;20096;-38
2023/04/17 06:04:57;;;;;;;6.38;3.35;;;;;;;;;;5051630;28;20051;-38
2023/04/17 06:07:23;;;;;;;7.72;3.20;;;;;;;;;;5051749;28;20036;-38
2023/04/17 06:09:51;;;;;;;6.97;3.03;;;;;;;;;;5051554;28;20399;-38
2023/04/17 06:12:17;;;;;;;6.50;3.00;;;;;;;;;;5051453;28;20028;-38
2023/04/17 06:14:45;;;;;;;6.15;2.85;;;;;;;;;;5051777;28;20031;-38
2023/04/17 06:17:12;;;;;;;6.45;2.88;;;;;;;;;;5051088;28;20116;-38
2023/04/17 06:19:39;;;;;;;8.10;2.97;;;;;;;;;;5051497;28;20498;-38
2023/04/17 06:22:06;;;;;;;6.85;3.10;;;;;;;;;;5051517;28;20041;-38
2023/04/17 06:24:33;;;;;;;4.93;2.85;;;;;;;;;;5051394;28;20383;-38
2023/04/17 06:27:00;;;;;;;7.30;2.80;;;;;;;;;;5051282;28;20033;-38
2023/04/17 06:29:27;;;;;;;5.57;2.53;;;;;;;;;;5051310;28;20113;-38
2023/04/17 06:31:53;;;;;;;6.47;2.95;;;;;;;;;;5051633;28;20086;-39
2023/04/17 06:34:21;;;;;;;7.32;2.97;;;;;;;;;;5051377;28;20134;-38
2023/04/17 06:36:48;;;;;;;6.20;2.78;;;;;;;;;;5051093;28;20057;-38
2023/04/17 06:39:15;;;;;;;10.13;2.67;;;;;;;;;;5051121;28;20068;-38
2023/04/17 06:41:42;;;;;;;5.03;2.75;;;;;;;;;;5051239;28;20033;-38
2023/04/17 06:44:09;;;;;;;5.20;3.00;;;;;;;;;;5051265;28;20033;-38
2023/04/17 06:46:36;;;;;;;6.60;2.75;;;;;;;;;;5051111;28;20491;-38
2023/04/17 06:49:03;;;;;;;5.57;2.58;;;;;;;;;;5051267;28;20483;-38
2023/04/17 06:51:30;;;;;;;6.00;2.88;;;;;;;;;;5051033;28;20108;-38
2023/04/17 06:53:58;;;;;;;5.13;2.42;;;;;;;;;;5051080;28;20026;-38
2023/04/17 06:56:25;;;;;;;5.32;2.50;;;;;;;;;;5051114;28;20495;-38
2023/04/17 06:58:53;;;;;;;6.28;2.70;;;;;;;;;;5051121;28;20063;-38
2023/04/17 07:01:20;;;;;;;4.90;2.47;;;;;;;;;;5054313;28;20035;-38
2023/04/17 07:03:47;;;;;;;6.25;2.47;;;;;;;;;;5054773;28;20375;-38
2023/04/17 07:06:14;;;;;;;4.93;2.83;;;;;;;;;;5054787;28;20037;-38
2023/04/17 07:08:41;;;;;;;6.13;2.22;;;;;;;;;;5054834;28;20029;-38
2023/04/17 07:11:09;;;;;;;5.75;2.30;;;;;;;;;;5054875;28;20028;-38
2023/04/17 07:13:36;;;;;;;5.38;2.50;;;;;;;;;;5054808;28;20021;-38
2023/04/17 07:16:04;;;;;;;3.85;2.17;;;;;;;;;;5054628;28;20609;-38
2023/04/17 07:18:31;;;;;;;4.07;2.42;;;;;;;;;;5054667;28;20036;-38
2023/04/17 07:20:58;;;;;;;4.18;2.13;;;;;;;;;;5054655;28;20029;-38
2023/04/17 07:23:25;;;;;;;4.93;2.35;;;;;;;;;;5054547;28;20024;-38
2023/04/17 07:25:53;;;;;;;4.28;2.30;;;;;;;;;;5054378;28;20106;-38
2023/04/17 07:28:20;;;;;;;5.97;2.33;;;;;;;;;;5054484;28;20017;-38
2023/04/17 07:30:47;;;;;;;4.53;2.22;;;;;;;;;;5054326;28;20030;-38
2023/04/17 07:33:14;;;;;;;4.80;2.40;;;;;;;;;;5054432;28;20056;-38
2023/04/17 07:35:42;;;;;;;6.85;2.25;;;;;;;;;;5054330;28;20112;-38
2023/04/17 07:38:10;;;;;;;5.07;2.13;;;;;;;;;;5054143;28;20064;-38
2023/04/17 07:40:37;;;;;;;5.07;2.45;;;;;;;;;;5054245;28;20025;-38
2023/04/17 07:43:04;;;;;;;4.97;2.33;;;;;;;;;;5054176;28;20025;-38
2023/04/17 07:45:32;;;;;;;4.50;2.03;;;;;;;;;;5054221;28;20072;-38
2023/04/17 07:47:59;;;;;;;5.43;2.30;;;;;;;;;;5054001;28;20035;-38
2023/04/17 07:50:26;;;;;;;3.53;1.90;;;;;;;;;;5054057;28;20025;-38
2023/04/17 07:52:53;;;;;;;4.43;2.50;;;;;;;;;;5054095;28;20032;-38
2023/04/17 07:55:20;;;;;;;5.20;2.13;;;;;;;;;;5054002;28;20537;-38
2023/04/17 07:57:48;;;;;;;4.55;2.10;;;;;;;;;;5053810;28;20106;-38
2023/04/17 08:00:16;;;;;;;4.75;2.40;;;;;;;;;;5053860;28;20035;-38
2023/04/17 08:02:43;;;;;;;3.88;2.10;;;;;;;;;;5053797;28;20033;-38
2023/04/17 08:05:10;;;;;;;4.53;2.22;;;;;;;;;;5053678;28;20093;-38
2023/04/17 08:07:38;;;;;;;3.63;1.92;;;;;;;;;;5053607;28;20418;-38
2023/04/17 08:10:06;;;;;;;5.90;2.63;;;;;;;;;;5053391;28;20032;-38
2023/04/17 08:12:33;;;;;;;3.30;1.92;;;;;;;;;;5053488;28;20147;-38
2023/04/17 08:15:00;;;;;;;4.05;2.05;;;;;;;;;;5053733;28;20029;-38
2023/04/17 08:17:28;;;;;;;4.90;2.30;;;;;;;;;;5053556;28;20112;-38
2023/04/17 08:20:06;;;;;;;2.03;1.60;;;;;;;;;;5053460;28;20060;-38
2023/04/17 08:22:38;;;;;;;4.40;2.20;;;;;;;;;;5053519;28;20112;-38
2023/04/17 08:25:08;;;;;;;4.97;2.28;;;;;;;;;;5053409;28;20017;-38
2023/04/17 08:27:35;;;;;;;4.88;1.80;;;;;;;;;;5053296;28;20487;-38
2023/04/17 08:30:03;;;;;;;5.50;2.22;;;;;;;;;;5053333;28;20029;-38
2023/04/17 08:32:37;;;;;;;4.82;2.33;;;;;;;;;;5053263;28;20017;-38
2023/04/17 08:35:04;;;;;;;4.57;2.38;;;;;;;;;;5053186;28;20036;-37
2023/04/17 08:37:31;;;;;;;3.05;1.90;;;;;;;;;;5052996;28;20075;-37
2023/04/17 08:39:58;;;;;;;3.78;1.75;;;;;;;;;;5053171;28;20056;-37
2023/04/17 08:42:26;;;;;;;6.15;2.30;;;;;;;;;;5052927;28;20116;-36
2023/04/17 08:44:53;;;;;;;4.53;1.92;;;;;;;;;;5053190;28;20442;-36
2023/04/17 08:47:20;;;;;;;5.45;2.10;;;;;;;;;;5052978;28;20082;-37
2023/04/17 08:49:49;;;;;;;3.58;1.67;;;;;;;;;;5053052;28;20066;-37
2023/04/17 08:52:16;;;;;;;3.80;1.92;;;;;;;;;;5052935;28;20112;-37
2023/04/17 08:54:43;;;;;;;3.25;1.42;;;;;;;;;;5052917;28;20025;-37
2023/04/17 08:57:10;;;;;;;4.93;2.00;;;;;;;;;;5052866;28;20054;-37
2023/04/17 08:59:37;;;;;;;4.85;2.03;;;;;;;;;;5052852;28;20123;-37
2023/04/17 09:02:05;;;;;;;3.72;2.00;;;;;;;;;;5052836;28;20032;-37
2023/04/17 09:04:36;;;;;;;2.83;1.70;;;;;;;;;;5052777;28;20021;-36
2023/04/17 09:07:03;;;;;;;4.25;1.80;;;;;;;;;;5052449;28;20123;-36
2023/04/17 09:09:48;;;;;;;4.80;1.50;;;;;;;;;;5052596;28;20032;-36
2023/04/17 09:12:15;;;;;;;3.47;1.83;;;;;;;;;;5052654;28;20021;-37
2023/04/17 09:14:43;;;;;;;6.60;1.88;;;;;;;;;;5052536;28;20090;-36
2023/04/17 09:17:10;;;;;;;3.38;1.60;;;;;;;;;;5052198;28;20032;-37
2023/04/17 09:19:37;;;;;;;3.20;1.67;;;;;;;;;;5052532;28;20060;-36
2023/04/17 09:22:20;;;;;;;4.55;1.80;;;;;;;;;;5044753;28;20032;-37
2023/04/17 09:24:47;;;;;;;3.90;1.90;;;;;;;;;;5032004;28;20041;-37
2023/04/17 09:27:21;;;;;;;4.95;2.00;;;;;;;;;;5031947;28;20033;-37
2023/04/17 09:30:01;;;;;;;4.28;1.45;;;;;;;;;;5032037;28;20045;-37
2023/04/17 09:32:29;;;;;;;6.18;1.98;;;;;;;;;;5042479;28;20475;-38
2023/04/17 09:34:57;;;;;;;3.00;1.50;;;;;;;;;;5040719;28;20025;-38
2023/04/17 09:37:24;;;;;;;6.10;1.70;;;;;;;;;;5041228;28;20040;-37
2023/04/17 09:39:58;;;;;;;8.02;1.75;;;;;;;;;;5048133;28;20029;-36
2023/04/17 09:42:26;;;;;;;5.97;1.83;;;;;;;;;;5048497;28;20044;-38
2023/04/17 09:44:53;;;;;;;4.43;1.90;;;;;;;;;;5034775;28;20031;-38
2023/04/17 09:47:21;;;;;;;6.95;1.90;;;;;;;;;;5050875;28;20367;-37
2023/04/17 09:49:51;;;;;;;8.32;2.50;;;;;;;;;;5051659;28;20447;-37
2023/04/17 09:52:22;;;;;;;8.50;2.92;;;;;;;;;;5051676;28;20593;-36
2023/04/17 09:54:53;;;;;;;7.57;2.85;;;;;;;;;;5051668;28;20529;-36
2023/04/17 09:57:20;;;;;;;10.80;2.80;;;;;;;;;;5051596;28;20414;-36
2023/04/17 09:59:48;;;;;;;9.85;3.10;;;;;;;;;;5047176;28;20110;-37
2023/04/17 10:02:16;;;;;;;9.40;3.25;;;;;;;;;;5040069;28;20033;-36
2023/04/17 10:04:44;;;;;;;10.52;3.65;;;;;;;;;;5041466;28;20064;-36
2023/04/17 10:07:12;;;;;;;9.27;3.50;;;;;;;;;;5039321;28;20043;-37
2023/04/17 10:09:44;;;;;;;7.45;3.28;;;;;;;;;;5038589;28;20471;-37
2023/04/17 10:12:18;;;;;;;13.40;3.25;;;;;;;;;;5039719;28;20034;-38
2023/04/17 10:14:47;;;;;;;10.95;3.38;;;;;;;;;;5036691;28;20092;-37
2023/04/17 10:17:23;;;;;;;7.57;3.05;;;;;;;;;;5043450;28;20394;-36
2023/04/17 10:19:51;;;;;;;8.00;3.30;;;;;;;;;;5041112;28;20092;-36
2023/04/17 10:22:17;;;;;;;8.55;3.28;;;;;;;;;;5039485;28;20803;-36
2023/04/17 10:24:50;;;;;;;12.20;3.42;;;;;;;;;;5040034;28;20029;-36
2023/04/17 10:27:26;;;;;;;14.73;3.63;;;;;;;;;;5041030;28;20041;-36
2023/04/17 10:29:54;;;;;;;11.32;3.10;;;;;;;;;;5041929;28;20025;-37
2023/04/17 10:32:24;;;;;;;8.40;3.15;;;;;;;;;;5033462;28;20029;-39
2023/04/17 10:34:51;;;;;;;10.02;3.20;;;;;;;;;;5031477;28;20100;-39
2023/04/17 10:37:18;;;;;;;12.57;3.47;;;;;;;;;;5034303;28;20043;-38
2023/04/17 10:39:53;;;;;;;10.50;3.45;;;;;;;;;;5034524;28;20080;-38
2023/04/17 10:42:20;;;;;;;9.90;2.88;;;;;;;;;;5034542;28;20396;-37
2023/04/17 10:44:48;;;;;;;7.50;2.88;;;;;;;;;;5034383;28;20029;-37
2023/04/17 10:47:15;;;;;;;12.45;3.03;;;;;;;;;;5032818;28;20100;-38
2023/04/17 10:49:52;;;;;;;11.82;2.97;;;;;;;;;;5034498;28;20025;-40
2023/04/17 10:52:31;;;;;;;14.07;3.25;;;;;;;;;;5034602;28;20022;-37
2023/04/17 10:55:08;;;;;;;11.27;3.63;;;;;;;;;;5036671;28;20025;-37
2023/04/17 10:57:53;;;;;;;14.32;3.47;;;;;;;;;;5042653;28;20029;-38
2023/04/17 11:00:20;;;;;;;11.15;2.97;;;;;;;;;;5050030;28;20383;-37
2023/04/17 11:02:49;;;;;;;11.32;3.05;;;;;;;;;;5053776;28;20039;-37
2023/04/17 11:05:17;;;;;;;15.20;3.35;;;;;;;;;;5045633;28;20029;-37
2023/04/17 11:07:49;;;;;;;13.48;3.03;;;;;;;;;;5040199;28;20029;-37
2023/04/17 11:10:18;;;;;;;15.85;3.00;;;;;;;;;;5034319;28;20488;-38
2023/04/17 11:12:48;;;;;;;10.20;3.17;;;;;;;;;;5039215;28;20029;-38
2023/04/17 11:15:15;;;;;;;13.45;2.65;;;;;;;;;;5034263;28;20068;-39
2023/04/17 11:17:48;;;;;;;13.57;2.97;;;;;;;;;;5032868;28;20034;-38
2023/04/17 11:20:20;;;;;;;9.60;2.92;;;;;;;;;;5034681;28;20147;-38
2023/04/17 11:22:47;;;;;;;8.55;2.60;;;;;;;;;;5036642;28;20029;-37
2023/04/17 11:25:24;;;;;;;8.75;3.22;;;;;;;;;;5034445;28;20028;-37
2023/04/17 11:28:01;;;;;;;6.35;2.63;;;;;;;;;;5035740;28;20198;-41
2023/04/17 11:30:30;;;;;;;11.55;3.20;;;;;;;;;;5053943;28;20036;-37
2023/04/17 11:33:03;;;;;;;9.57;2.85;;;;;;;;;;5053911;28;20024;-36
2023/04/17 11:35:32;;;;;;;9.20;2.83;;;;;;;;;;5052518;28;20118;-42
2023/04/17 11:38:11;;;;;;;12.50;2.88;;;;;;;;;;5033986;28;20060;-37
2023/04/17 11:40:47;;;;;;;8.05;2.70;;;;;;;;;;5034171;28;20030;-36
2023/04/17 11:43:14;;;;;;;14.73;2.70;;;;;;;;;;5033975;28;20044;-36
2023/04/17 11:45:42;;;;;;;9.27;2.30;;;;;;;;;;5033497;28;20045;-36
2023/04/17 11:48:11;;;;;;;9.50;2.42;;;;;;;;;;5034139;28;20029;-37
2023/04/17 11:50:38;;;;;;;16.38;2.63;;;;;;;;;;5032763;28;20036;-37
2023/04/17 11:53:06;;;;;;;8.52;2.60;;;;;;;;;;5033895;28;20028;-39
2023/04/17 11:55:34;;;;;;;11.57;2.63;;;;;;;;;;5033809;28;20038;-38
2023/04/17 11:58:03;;;;;;;9.50;2.60;;;;;;;;;;5033858;28;20123;-37
2023/04/17 12:00:30;;;;;;;9.90;2.50;;;;;;;;;;5032209;28;20030;-37
2023/04/17 12:02:58;;;;;;;7.28;2.75;;;;;;;;;;5038677;28;20672;-38
2023/04/17 12:05:25;;;;;;;8.60;2.22;;;;;;;;;;5033192;28;20035;-36
2023/04/17 12:08:03;;;;;;;7.30;2.33;;;;;;;;;;5033342;28;20245;-37
2023/04/17 12:10:37;;;;;;;7.30;2.15;;;;;;;;;;5031955;28;20030;-36
2023/04/17 12:13:04;;;;;;;9.00;2.47;;;;;;;;;;5033442;28;20032;-37
2023/04/17 12:15:31;;;;;;;6.90;2.13;;;;;;;;;;5033527;28;20447;-37
2023/04/17 12:17:58;;;;;;;5.80;2.20;;;;;;;;;;5033613;28;20028;-37
2023/04/17 12:20:25;;;;;;;5.10;1.90;;;;;;;;;;5032948;28;20527;-36
2023/04/17 12:22:52;;;;;;;12.95;2.30;;;;;;;;;;5031890;28;20041;-36
2023/04/17 12:25:19;;;;;;;9.05;2.00;;;;;;;;;;5033115;28;20040;-37
2023/04/17 12:27:46;;;;;;;4.32;1.60;;;;;;;;;;5032583;28;20035;-36
2023/04/17 12:30:14;;;;;;;7.10;1.80;;;;;;;;;;5032811;28;20036;-37
2023/04/17 12:32:42;;;;;;;5.88;2.00;;;;;;;;;;5031046;28;20029;-36
2023/04/17 12:35:10;;;;;;;7.53;2.05;;;;;;;;;;5032917;28;20057;-37
2023/04/17 12:37:36;;;;;;;4.30;2.05;;;;;;;;;;5032906;28;20065;-36
2023/04/17 12:40:04;;;;;;;4.55;1.70;;;;;;;;;;5033155;28;20029;-36
2023/04/17 12:42:31;;;;;;;9.35;2.35;;;;;;;;;;5031664;28;20926;-36
2023/04/17 12:44:58;;;;;;;4.55;1.60;;;;;;;;;;5032732;28;20029;-36
2023/04/17 12:47:26;;;;;;;5.07;1.77;;;;;;;;;;5032897;28;20026;-36
2023/04/17 12:49:53;;;;;;;7.28;1.45;;;;;;;;;;5035235;28;20158;-37
2023/04/17 12:52:20;;;;;;;3.63;1.80;;;;;;;;;;5032279;28;20707;-37
2023/04/17 12:54:47;;;;;;;5.03;1.85;;;;;;;;;;5035586;28;20032;-38
2023/04/17 12:57:14;;;;;;;4.88;1.85;;;;;;;;;;5041086;28;20079;-37
2023/04/17 12:59:41;;;;;;;6.95;1.50;;;;;;;;;;5039811;28;20176;-37
2023/04/17 13:02:08;;;;;;;4.25;1.50;;;;;;;;;;5042223;28;20021;-38
2023/04/17 13:04:35;;;;;;;6.68;1.67;;;;;;;;;;5040684;28;20030;-38
2023/04/17 13:07:02;;;;;;;7.30;1.80;;;;;;;;;;5037427;28;20044;-37
2023/04/17 13:09:29;;;;;;;6.80;1.83;;;;;;;;;;5036417;28;20033;-38
2023/04/17 13:11:56;;;;;;;7.28;1.60;;;;;;;;;;5050670;28;20025;-37
2023/04/17 13:14:23;;;;;;;7.85;2.00;;;;;;;;;;5051043;28;20131;-37
2023/04/17 13:16:50;;;;;;;6.15;1.58;;;;;;;;;;5051467;28;20080;-37
2023/04/17 13:19:17;;;;;;;9.73;1.77;;;;;;;;;;5052053;28;20470;-37
2023/04/17 13:21:44;;;;;;;7.43;1.58;;;;;;;;;;5052296;28;20045;-36
2023/04/17 13:24:13;;;;;;;8.05;1.80;;;;;;;;;;5052422;28;20021;-37
2023/04/17 13:26:41;;;;;;;6.57;1.80;;;;;;;;;;5052025;28;20056;-36
2023/04/17 13:29:08;;;;;;;8.73;1.60;;;;;;;;;;5052374;28;20055;-37
2023/04/17 13:31:35;;;;;;;8.50;1.63;;;;;;;;;;5052304;28;20024;-37
2023/04/17 13:34:02;;;;;;;4.78;1.55;;;;;;;;;;5052301;28;20021;-37
2023/04/17 13:36:30;;;;;;;6.93;1.77;;;;;;;;;;5052151;28;20024;-36
2023/04/17 13:38:57;;;;;;;7.13;1.80;;;;;;;;;;5051965;28;20036;-36
2023/04/17 13:41:24;;;;;;;8.68;2.13;;;;;;;;;;5052127;28;20057;-36
2023/04/17 13:43:52;;;;;;;8.98;1.85;;;;;;;;;;5050747;28;20025;-36
2023/04/17 13:46:19;;;;;;;5.43;1.60;;;;;;;;;;5051740;28;20080;-37
2023/04/17 13:48:47;;;;;;;7.18;1.60;;;;;;;;;;5051934;28;20025;-36
2023/04/17 13:51:14;;;;;;;5.85;1.70;;;;;;;;;;5051794;28;20029;-36
2023/04/17 13:53:41;;;;;;;6.15;1.55;;;;;;;;;;5052956;28;20399;-37
2023/04/17 13:56:09;;;;;;;6.80;1.60;;;;;;;;;;5070453;28;20489;-37
2023/04/17 13:58:36;;;;;;;7.75;1.70;;;;;;;;;;5060489;28;20064;-35
2023/04/17 14:01:02;;;;;;;11.05;1.35;;;;;;;;;;5070745;28;20036;-36
2023/04/17 14:03:30;;;;;;;9.63;2.13;;;;;;;;;;5052134;28;20111;-39
2023/04/17 14:05:57;;;;;;;8.35;1.50;;;;;;;;;;5049785;28;20036;-38
2023/04/17 14:08:24;;;;;;;13.25;2.20;;;;;;;;;;5047863;28;20052;-38
2023/04/17 14:10:51;;;;;;;6.28;1.73;;;;;;;;;;5050473;28;20035;-38
2023/04/17 14:13:18;;;;;;;12.95;2.13;;;;;;;;;;5049250;28;20029;-39
2023/04/17 14:15:46;;;;;;;5.80;1.42;;;;;;;;;;5052084;28;20048;-39
2023/04/17 14:18:13;;;;;;;9.38;1.58;;;;;;;;;;5050337;28;20079;-37
2023/04/17 14:20:40;;;;;;;7.00;1.73;;;;;;;;;;5050008;28;20047;-37
2023/04/17 14:23:07;;;;;;;6.93;1.70;;;;;;;;;;5051338;28;20100;-39
2023/04/17 14:25:34;;;;;;;8.32;1.50;;;;;;;;;;5049982;28;20036;-38
2023/04/17 14:28:01;;;;;;;4.57;1.50;;;;;;;;;;5049791;28;20051;-39
2023/04/17 14:30:28;;;;;;;8.20;1.80;;;;;;;;;;5048526;28;20027;-39
2023/04/17 14:32:55;;;;;;;6.68;2.15;;;;;;;;;;5049740;28;20025;-38
2023/04/17 14:35:22;;;;;;;12.50;2.03;;;;;;;;;;5049695;28;20021;-38
2023/04/17 14:37:49;;;;;;;5.32;1.80;;;;;;;;;;5049428;28;20045;-40
2023/04/17 14:40:16;;;;;;;6.75;1.80;;;;;;;;;;5048240;28;20100;-38
2023/04/17 14:42:43;;;;;;;5.40;1.90;;;;;;;;;;5049855;28;20095;-38